createdAt,value
2018-10-17T00:01:36.342Z,11.87
2018-10-17T00:04:04.983Z,11.87
2018-10-17T00:06:33.115Z,11.83
2018-10-17T00:09:01.247Z,12.67
2018-10-17T00:11:29.510Z,12.23
2018-10-17T00:13:57.614Z,11.87
2018-10-17T00:16:25.935Z,12.50
2018-10-17T00:18:54.050Z,12.60
2018-10-17T00:21:22.191Z,12.93
2018-10-17T00:23:50.338Z,13.00
2018-10-17T00:26:18.484Z,13.23
2018-10-17T00:28:46.620Z,12.50
2018-10-17T00:31:14.828Z,12.80
2018-10-17T00:33:42.906Z,12.30
2018-10-17T00:36:11.053Z,12.87
2018-10-17T00:38:39.167Z,12.70
2018-10-17T00:41:07.386Z,12.37
2018-10-17T00:43:35.459Z,12.80
2018-10-17T00:46:03.590Z,12.60
2018-10-17T00:48:31.754Z,12.70
2018-10-17T00:50:59.897Z,12.97
2018-10-17T00:53:28.025Z,12.40
2018-10-17T00:55:56.166Z,12.47
2018-10-17T00:58:24.298Z,13.13
2018-10-17T01:00:52.516Z,12.80
2018-10-17T01:03:20.607Z,12.90
2018-10-17T01:05:48.746Z,13.10
2018-10-17T01:08:16.996Z,12.57
2018-10-17T01:10:45.110Z,12.97
2018-10-17T01:13:13.316Z,13.10
2018-10-17T01:15:41.394Z,12.67
2018-10-17T01:18:09.530Z,12.43
2018-10-17T01:20:37.690Z,12.40
2018-10-17T01:23:05.903Z,12.73
2018-10-17T01:25:33.999Z,13.70
2018-10-17T01:28:02.122Z,12.40
2018-10-17T01:30:30.267Z,12.50
2018-10-17T01:32:58.448Z,12.83
2018-10-17T01:35:26.584Z,12.40
2018-10-17T01:37:54.714Z,12.67
2018-10-17T01:40:22.837Z,13.13
2018-10-17T01:42:51.015Z,12.40
2018-10-17T01:45:19.122Z,11.97
2018-10-17T01:47:47.273Z,12.57
2018-10-17T01:50:15.415Z,12.70
2018-10-17T01:52:43.633Z,12.60
2018-10-17T01:55:11.780Z,12.60
2018-10-17T01:57:39.869Z,12.13
2018-10-17T02:00:07.982Z,12.67
2018-10-17T02:02:36.107Z,13.23
2018-10-17T02:05:04.498Z,12.30
2018-10-17T02:07:32.630Z,12.93
2018-10-17T02:10:00.734Z,13.47
2018-10-17T02:12:28.854Z,12.63
2018-10-17T02:14:56.977Z,13.27
2018-10-17T02:17:25.103Z,12.40
2018-10-17T02:19:53.219Z,12.67
2018-10-17T02:22:21.346Z,12.90
2018-10-17T02:24:49.582Z,13.50
2018-10-17T02:27:17.709Z,12.40
2018-10-17T02:29:45.839Z,12.90
2018-10-17T02:32:13.942Z,12.60
2018-10-17T02:34:47.424Z,12.83
2018-10-17T02:37:15.637Z,13.63
2018-10-17T02:39:43.664Z,13.73
2018-10-17T02:42:11.782Z,13.00
2018-10-17T02:44:39.908Z,13.53
2018-10-17T02:47:08.043Z,13.80
2018-10-17T02:49:36.154Z,13.10
2018-10-17T02:52:04.273Z,13.03
2018-10-17T02:54:32.386Z,13.23
2018-10-17T02:57:00.514Z,13.43
2018-10-17T02:59:28.935Z,13.67
2018-10-17T03:01:57.077Z,12.97
2018-10-17T03:04:25.204Z,13.60
2018-10-17T03:06:53.386Z,13.33
2018-10-17T03:09:21.474Z,13.77
2018-10-17T03:11:49.602Z,13.50
2018-10-17T03:14:17.717Z,13.50
2018-10-17T03:16:45.847Z,13.57
2018-10-17T03:19:14.100Z,13.27
2018-10-17T03:21:42.166Z,14.70
2018-10-17T03:24:10.340Z,13.90
2018-10-17T03:26:38.458Z,12.90
2018-10-17T03:29:06.651Z,13.70
2018-10-17T03:31:34.819Z,13.60
2018-10-17T03:34:02.893Z,13.73
2018-10-17T03:36:31.022Z,13.97
2018-10-17T03:38:59.171Z,13.80
2018-10-17T03:41:27.320Z,14.03
2018-10-17T03:43:55.449Z,14.70
2018-10-17T03:46:23.607Z,14.50
2018-10-17T03:48:51.754Z,14.40
2018-10-17T03:51:19.878Z,15.30
2018-10-17T03:53:48.019Z,15.03
2018-10-17T03:56:16.134Z,15.07
2018-10-17T03:58:44.302Z,14.87
2018-10-17T04:01:12.476Z,15.37
2018-10-17T04:03:40.625Z,14.87
2018-10-17T04:06:08.835Z,14.53
2018-10-17T04:08:36.993Z,14.13
2018-10-17T04:11:05.300Z,14.67
2018-10-17T04:13:33.437Z,13.83
2018-10-17T04:16:01.802Z,14.37
2018-10-17T04:18:30.006Z,13.90
2018-10-17T04:20:58.153Z,13.90
2018-10-17T04:23:26.294Z,13.67
2018-10-17T04:25:54.423Z,14.33
2018-10-17T04:28:22.592Z,13.83
2018-10-17T04:30:50.819Z,14.40
2018-10-17T04:33:18.905Z,13.93
2018-10-17T04:35:47.069Z,13.47
2018-10-17T04:38:15.206Z,13.40
2018-10-17T04:40:43.411Z,13.53
2018-10-17T04:43:11.719Z,13.63
2018-10-17T04:45:39.767Z,14.47
2018-10-17T04:48:07.969Z,13.87
2018-10-17T04:50:36.175Z,14.83
2018-10-17T04:53:04.389Z,13.00
2018-10-17T04:55:32.499Z,13.80
2018-10-17T04:58:01.150Z,13.83
2018-10-17T05:00:29.307Z,13.80
2018-10-17T05:02:57.478Z,13.40
2018-10-17T05:05:25.614Z,13.87
2018-10-17T05:07:53.767Z,14.70
2018-10-17T05:10:21.914Z,14.40
2018-10-17T05:12:50.098Z,13.90
2018-10-17T05:15:18.285Z,14.53
2018-10-17T05:17:46.414Z,15.00
2018-10-17T05:20:14.555Z,15.07
2018-10-17T05:22:42.765Z,15.20
2018-10-17T05:25:11.033Z,14.60
2018-10-17T05:27:39.058Z,15.27
2018-10-17T05:30:07.859Z,15.63
2018-10-17T05:32:36.005Z,15.57
2018-10-17T05:35:04.271Z,14.77
2018-10-17T05:37:32.443Z,15.93
2018-10-17T05:40:00.647Z,15.20
2018-10-17T05:42:28.788Z,15.67
2018-10-17T05:44:56.950Z,15.67
2018-10-17T05:47:25.072Z,15.80
2018-10-17T05:49:53.214Z,15.67
2018-10-17T05:52:21.357Z,15.37
2018-10-17T05:54:49.577Z,16.23
2018-10-17T05:57:17.753Z,15.47
2018-10-17T05:59:46.051Z,15.30
2018-10-17T06:02:18.854Z,15.17
2018-10-17T06:04:46.908Z,15.03
2018-10-17T06:07:15.094Z,15.27
2018-10-17T06:09:43.221Z,19.40
2018-10-17T06:12:11.354Z,15.10
2018-10-17T06:14:39.499Z,15.60
2018-10-17T06:17:07.666Z,15.07
2018-10-17T06:19:35.914Z,15.50
2018-10-17T06:22:04.270Z,15.67
2018-10-17T06:24:32.448Z,15.70
2018-10-17T06:27:00.595Z,16.50
2018-10-17T06:29:28.734Z,15.33
2018-10-17T06:31:56.910Z,15.83
2018-10-17T06:34:25.123Z,16.07
2018-10-17T06:36:53.263Z,16.33
2018-10-17T06:39:21.371Z,16.40
2018-10-17T06:41:49.543Z,16.33
2018-10-17T06:44:17.710Z,15.80
2018-10-17T06:46:45.850Z,15.40
2018-10-17T06:49:14.112Z,15.97
2018-10-17T06:51:42.203Z,17.23
2018-10-17T06:54:10.408Z,16.63
2018-10-17T06:56:38.590Z,16.60
2018-10-17T06:59:06.936Z,16.03
2018-10-17T07:01:34.981Z,16.23
2018-10-17T07:04:03.127Z,17.70
2018-10-17T07:06:31.333Z,16.97
2018-10-17T07:08:59.554Z,17.33
2018-10-17T07:11:27.717Z,16.43
2018-10-17T07:13:55.870Z,17.70
2018-10-17T07:16:24.288Z,17.30
2018-10-17T07:18:52.507Z,17.50
2018-10-17T07:21:20.646Z,16.90
2018-10-17T07:23:48.888Z,17.47
2018-10-17T07:26:17.050Z,16.50
2018-10-17T07:28:45.331Z,16.30
2018-10-17T07:31:13.488Z,16.40
2018-10-17T07:33:41.605Z,16.23
2018-10-17T07:36:09.819Z,16.33
2018-10-17T07:38:37.962Z,16.97
2018-10-17T07:41:06.478Z,16.57
2018-10-17T07:43:34.701Z,16.97
2018-10-17T07:46:02.854Z,16.93
2018-10-17T07:48:30.982Z,16.30
2018-10-17T07:50:59.157Z,15.83
2018-10-17T07:53:27.423Z,15.90
2018-10-17T07:55:55.471Z,15.80
2018-10-17T07:58:23.611Z,14.97
2018-10-17T08:00:51.758Z,15.70
2018-10-17T08:03:19.916Z,15.30
2018-10-17T08:05:48.101Z,16.07
2018-10-17T08:08:16.279Z,16.07
2018-10-17T08:10:44.431Z,15.33
2018-10-17T08:13:12.580Z,16.17
2018-10-17T08:15:40.783Z,15.87
2018-10-17T08:18:08.953Z,16.57
2018-10-17T08:20:37.055Z,16.03
2018-10-17T08:23:05.977Z,16.10
2018-10-17T08:25:34.170Z,16.10
2018-10-17T08:28:02.310Z,16.00
2018-10-17T08:30:30.457Z,16.23
2018-10-17T08:32:58.623Z,15.67
2018-10-17T08:35:27.012Z,16.20
2018-10-17T08:37:55.273Z,15.20
2018-10-17T08:40:23.177Z,15.17
2018-10-17T08:42:51.351Z,15.00
2018-10-17T08:45:19.554Z,15.33
2018-10-17T08:47:47.654Z,13.57
2018-10-17T08:50:15.897Z,14.20
2018-10-17T08:52:44.011Z,14.40
2018-10-17T08:55:12.179Z,13.43
2018-10-17T08:57:40.454Z,14.40
2018-10-17T09:00:08.802Z,13.13
2018-10-17T09:02:36.965Z,14.20
2018-10-17T09:05:05.155Z,13.30
2018-10-17T09:07:33.321Z,13.70
2018-10-17T09:10:01.473Z,13.63
2018-10-17T09:12:29.595Z,13.13
2018-10-17T09:14:57.754Z,12.73
2018-10-17T09:17:25.878Z,11.60
2018-10-17T09:19:54.337Z,12.00
2018-10-17T09:22:22.551Z,12.57
2018-10-17T09:24:50.358Z,11.93
2018-10-17T09:27:18.630Z,11.57
2018-10-17T09:29:46.746Z,11.87
2018-10-17T09:32:14.884Z,12.00
2018-10-17T09:34:43.126Z,11.07
2018-10-17T09:37:11.242Z,10.37
2018-10-17T09:39:39.355Z,10.47
2018-10-17T09:42:07.560Z,10.17
2018-10-17T09:44:35.626Z,11.00
2018-10-17T09:47:03.751Z,9.57
2018-10-17T09:49:31.882Z,9.97
2018-10-17T09:52:00.075Z,9.17
2018-10-17T09:54:28.191Z,9.60
2018-10-17T09:56:56.318Z,9.90
2018-10-17T09:59:24.418Z,9.40
2018-10-17T10:01:53.474Z,9.80
2018-10-17T10:04:22.150Z,9.43
2018-10-17T10:06:50.296Z,9.07
2018-10-17T10:09:18.433Z,8.87
2018-10-17T10:11:46.561Z,8.53
2018-10-17T10:14:14.674Z,8.20
2018-10-17T10:16:42.850Z,8.10
2018-10-17T10:19:10.994Z,8.80
2018-10-17T10:21:39.146Z,8.70
2018-10-17T10:24:07.378Z,8.97
2018-10-17T10:26:35.407Z,8.40
2018-10-17T10:29:03.521Z,7.83
2018-10-17T10:31:31.648Z,8.37
2018-10-17T10:33:59.819Z,8.17
2018-10-17T10:36:27.914Z,7.63
2018-10-17T10:38:56.031Z,7.83
2018-10-17T10:41:24.179Z,7.70
2018-10-17T10:43:52.317Z,7.60
2018-10-17T10:46:20.493Z,7.00
2018-10-17T10:48:48.628Z,7.53
2018-10-17T10:51:16.808Z,6.27
2018-10-17T10:53:44.892Z,6.93
2018-10-17T10:56:13.118Z,7.23
2018-10-17T10:58:41.317Z,6.20
2018-10-17T11:01:09.306Z,6.67
2018-10-17T11:03:37.422Z,6.23
2018-10-17T11:06:05.683Z,8.73
2018-10-17T11:08:33.810Z,6.67
2018-10-17T11:11:01.950Z,5.97
2018-10-17T11:13:30.161Z,6.10
2018-10-17T11:15:58.266Z,6.33
2018-10-17T11:18:26.391Z,6.63
2018-10-17T11:20:54.546Z,6.50
2018-10-17T11:23:22.722Z,6.47
2018-10-17T11:25:50.878Z,6.50
2018-10-17T11:28:18.982Z,6.00
2018-10-17T11:30:47.107Z,6.73
2018-10-17T11:33:15.302Z,6.23
2018-10-17T11:35:43.379Z,5.87
2018-10-17T11:38:11.513Z,6.70
2018-10-17T11:40:39.653Z,6.10
2018-10-17T11:43:07.806Z,6.30
2018-10-17T11:45:36.037Z,6.10
2018-10-17T11:48:04.234Z,5.83
2018-10-17T11:50:32.454Z,6.03
2018-10-17T11:53:00.633Z,6.30
2018-10-17T11:55:28.749Z,6.27
2018-10-17T11:57:56.901Z,5.83
2018-10-17T12:00:25.027Z,5.83
2018-10-17T12:02:53.268Z,5.60
2018-10-17T12:05:21.706Z,5.43
2018-10-17T12:07:49.506Z,4.93
2018-10-17T12:10:17.625Z,5.10
2018-10-17T12:12:45.760Z,5.27
2018-10-17T12:15:15.153Z,4.97
2018-10-17T12:17:43.289Z,5.03
2018-10-17T12:20:13.035Z,5.20
2018-10-17T12:22:41.834Z,4.87
2018-10-17T12:25:10.719Z,5.10
2018-10-17T12:27:39.066Z,5.03
2018-10-17T12:30:10.441Z,5.58
2018-10-17T12:32:39.435Z,5.07
2018-10-17T12:35:07.727Z,4.93
2018-10-17T12:37:36.627Z,5.20
2018-10-17T12:40:05.676Z,4.60
2018-10-17T12:42:33.802Z,5.10
2018-10-17T12:45:01.954Z,4.90
2018-10-17T12:47:30.131Z,5.40
2018-10-17T12:49:58.320Z,6.00
2018-10-17T12:52:26.484Z,7.43
2018-10-17T12:54:54.564Z,5.80
2018-10-17T12:57:22.670Z,5.83
2018-10-17T12:59:50.814Z,5.70
2018-10-17T13:02:18.951Z,5.20
2018-10-17T13:04:47.099Z,5.17
2018-10-17T13:07:15.369Z,5.33
2018-10-17T13:09:43.505Z,5.40
2018-10-17T13:12:11.634Z,5.40
2018-10-17T13:14:39.775Z,5.60
2018-10-17T13:17:08.113Z,5.13
2018-10-17T13:19:36.140Z,5.00
2018-10-17T13:22:04.402Z,5.30
2018-10-17T13:24:32.553Z,5.43
2018-10-17T13:27:00.643Z,5.13
2018-10-17T13:29:28.826Z,5.20
2018-10-17T13:31:56.980Z,5.30
2018-10-17T13:34:25.237Z,5.70
2018-10-17T13:36:53.330Z,5.30
2018-10-17T13:39:21.391Z,4.80
2018-10-17T13:41:49.651Z,5.43
2018-10-17T13:44:17.751Z,5.10
2018-10-17T13:46:45.889Z,5.20
2018-10-17T13:49:14.179Z,4.97
2018-10-17T13:51:42.320Z,4.80
2018-10-17T13:54:10.471Z,5.20
2018-10-17T13:56:38.617Z,5.00
2018-10-17T13:59:06.822Z,5.20
2018-10-17T14:01:34.970Z,5.00
2018-10-17T14:04:03.215Z,5.43
2018-10-17T14:06:31.278Z,5.43
2018-10-17T14:08:59.465Z,5.00
2018-10-17T14:11:27.547Z,5.27
2018-10-17T14:13:55.659Z,4.77
2018-10-17T14:16:23.778Z,5.20
2018-10-17T14:18:51.903Z,4.70
2018-10-17T14:21:20.108Z,5.00
2018-10-17T14:23:48.159Z,5.00
2018-10-17T14:26:16.321Z,5.13
2018-10-17T14:28:44.465Z,5.40
2018-10-17T14:31:12.592Z,5.00
2018-10-17T14:33:40.722Z,5.07
2018-10-17T14:36:08.938Z,5.07
2018-10-17T14:38:37.056Z,5.03
2018-10-17T14:41:05.321Z,5.33
2018-10-17T14:43:33.473Z,4.97
2018-10-17T14:46:01.591Z,4.77
2018-10-17T14:48:29.770Z,5.83
2018-10-17T14:50:57.927Z,5.27
2018-10-17T14:53:26.031Z,5.33
2018-10-17T14:55:54.239Z,5.30
2018-10-17T14:58:22.306Z,5.23
2018-10-17T15:00:50.457Z,6.30
2018-10-17T15:03:18.792Z,6.27
2018-10-17T15:05:46.931Z,5.73
2018-10-17T15:08:15.130Z,5.30
2018-10-17T15:10:43.458Z,5.33
2018-10-17T15:13:11.466Z,4.93
2018-10-17T15:15:40.937Z,5.20
2018-10-17T15:18:09.422Z,5.47
2018-10-17T15:20:37.451Z,5.67
2018-10-17T15:23:05.685Z,5.33
2018-10-17T15:25:33.857Z,5.87
2018-10-17T15:28:02.151Z,5.77
2018-10-17T15:30:30.255Z,5.97
2018-10-17T15:32:58.378Z,5.37
2018-10-17T15:35:26.561Z,5.40
2018-10-17T15:37:54.719Z,5.20
2018-10-17T15:40:23.152Z,6.07
2018-10-17T15:42:51.441Z,5.80
2018-10-17T15:45:19.826Z,6.03
2018-10-17T15:47:47.934Z,5.37
2018-10-17T15:50:16.202Z,5.60
2018-10-17T15:52:44.554Z,5.50
2018-10-17T15:55:12.690Z,5.53
2018-10-17T15:57:40.800Z,5.63
2018-10-17T16:00:10.428Z,6.07
2018-10-17T16:02:38.648Z,5.70
2018-10-17T16:05:09.268Z,5.30
2018-10-17T16:07:37.414Z,6.10
2018-10-17T16:10:05.633Z,5.67
2018-10-17T16:12:33.769Z,5.63
2018-10-17T16:15:01.939Z,5.83
2018-10-17T16:17:30.506Z,5.80
2018-10-17T16:19:58.688Z,5.97
2018-10-17T16:22:26.819Z,5.90
2018-10-17T16:24:54.947Z,6.10
2018-10-17T16:27:23.069Z,5.63
2018-10-17T16:29:51.253Z,6.17
2018-10-17T16:32:19.355Z,5.93
2018-10-17T16:34:47.532Z,6.17
2018-10-17T16:37:15.663Z,5.80
2018-10-17T16:39:43.810Z,5.23
2018-10-17T16:42:12.047Z,5.43
2018-10-17T16:44:40.153Z,6.20
2018-10-17T16:47:08.309Z,6.00
2018-10-17T16:49:36.494Z,6.17
2018-10-17T16:52:04.584Z,6.70
2018-10-17T16:54:32.702Z,6.10
2018-10-17T16:57:00.939Z,6.87
2018-10-17T16:59:29.273Z,5.97
2018-10-17T17:01:57.494Z,7.00
2018-10-17T17:04:25.650Z,6.90
2018-10-17T17:06:53.747Z,6.30
2018-10-17T17:09:21.912Z,7.30
2018-10-17T17:11:50.035Z,6.70
2018-10-17T17:14:18.191Z,7.17
2018-10-17T17:16:46.359Z,7.17
2018-10-17T17:19:14.563Z,7.10
2018-10-17T17:21:42.708Z,7.43
2018-10-17T17:24:10.976Z,8.43
2018-10-17T17:26:39.053Z,7.57
2018-10-17T17:29:07.226Z,7.47
2018-10-17T17:31:35.355Z,8.47
2018-10-17T17:34:03.508Z,8.00
2018-10-17T17:36:32.031Z,7.80
2018-10-17T17:39:00.075Z,7.73
2018-10-17T17:41:28.212Z,7.13
2018-10-17T17:43:56.383Z,7.73
2018-10-17T17:46:24.526Z,8.40
2018-10-17T17:48:52.682Z,8.37
2018-10-17T17:51:20.819Z,8.70
2018-10-17T17:53:48.977Z,9.47
2018-10-17T17:56:17.208Z,8.50
2018-10-17T17:58:45.369Z,8.93
2018-10-17T18:01:13.434Z,8.40
2018-10-17T18:03:41.563Z,8.47
2018-10-17T18:06:09.702Z,9.07
2018-10-17T18:08:37.821Z,8.70
2018-10-17T18:11:15.699Z,8.83
2018-10-17T18:13:43.978Z,8.93
2018-10-17T18:16:12.239Z,8.53
2018-10-17T18:18:40.464Z,9.57
2018-10-17T18:21:08.646Z,9.17
2018-10-17T18:23:36.815Z,9.83
2018-10-17T18:26:05.092Z,10.83
2018-10-17T18:28:33.351Z,9.80
2018-10-17T18:31:01.427Z,10.57
2018-10-17T18:33:29.549Z,9.87
2018-10-17T18:35:58.076Z,10.50
2018-10-17T18:38:26.207Z,16.50
2018-10-17T18:40:54.435Z,14.13
2018-10-17T18:43:22.578Z,11.93
2018-10-17T18:45:50.736Z,12.43
2018-10-17T18:48:18.898Z,12.07
2018-10-17T18:50:47.042Z,12.37
2018-10-17T18:53:15.186Z,12.83
2018-10-17T18:55:43.411Z,12.57
2018-10-17T18:58:11.779Z,11.73
2018-10-17T19:00:39.867Z,13.33
2018-10-17T19:03:08.158Z,13.90
2018-10-17T19:05:36.252Z,12.57
2018-10-17T19:08:04.512Z,12.63
2018-10-17T19:10:32.638Z,12.93
2018-10-17T19:13:00.765Z,13.80
2018-10-17T19:15:28.919Z,13.23
2018-10-17T19:17:57.035Z,12.73
2018-10-17T19:20:28.406Z,14.07
2018-10-17T19:22:56.945Z,14.13
2018-10-17T19:25:25.435Z,13.17
2018-10-17T19:27:53.593Z,14.20
2018-10-17T19:30:21.846Z,13.47
2018-10-17T19:32:49.926Z,13.97
2018-10-17T19:35:18.100Z,13.50
2018-10-17T19:37:46.248Z,14.50
2018-10-17T19:40:14.407Z,14.70
2018-10-17T19:42:42.632Z,14.73
2018-10-17T19:45:11.286Z,14.73
2018-10-17T19:47:39.958Z,15.70
2018-10-17T19:50:08.599Z,14.87
2018-10-17T19:52:36.794Z,14.77
2018-10-17T19:55:05.426Z,15.30
2018-10-17T19:57:33.554Z,14.53
2018-10-17T20:00:01.720Z,14.87
2018-10-17T20:02:29.901Z,15.27
2018-10-17T20:04:58.031Z,15.47
2018-10-17T20:07:26.173Z,15.83
2018-10-17T20:09:54.278Z,15.10
2018-10-17T20:12:22.442Z,15.13
2018-10-17T20:14:50.574Z,14.50
2018-10-17T20:17:18.731Z,14.67
2018-10-17T20:19:46.895Z,15.47
2018-10-17T20:22:15.059Z,15.57
2018-10-17T20:24:43.169Z,15.27
2018-10-17T20:27:11.395Z,15.97
2018-10-17T20:29:39.870Z,15.80
2018-10-17T20:32:08.570Z,16.37
2018-10-17T20:34:36.695Z,16.70
2018-10-17T20:37:05.175Z,17.67
2018-10-17T20:39:33.306Z,17.70
2018-10-17T20:42:01.518Z,17.03
2018-10-17T20:44:29.575Z,16.83
2018-10-17T20:46:57.779Z,17.17
2018-10-17T20:49:25.942Z,18.27
2018-10-17T20:51:54.070Z,18.10
2018-10-17T20:54:22.295Z,17.20
2018-10-17T20:56:50.471Z,18.60
2018-10-17T20:59:18.599Z,18.57
2018-10-17T21:01:46.802Z,18.97
2018-10-17T21:04:14.851Z,18.27
2018-10-17T21:06:42.983Z,18.70
2018-10-17T21:09:13.112Z,20.13
2018-10-17T21:11:41.524Z,19.67
2018-10-17T21:14:09.993Z,19.03
2018-10-17T21:16:38.110Z,19.57
2018-10-17T21:19:06.527Z,19.97
2018-10-17T21:21:34.703Z,19.70
2018-10-17T21:24:03.078Z,19.57
2018-10-17T21:26:31.207Z,19.97
2018-10-17T21:28:59.298Z,21.03
2018-10-17T21:31:29.405Z,21.63
2018-10-17T21:33:57.530Z,21.90
2018-10-17T21:36:25.633Z,21.53
2018-10-17T21:38:57.343Z,22.03
2018-10-17T21:41:25.610Z,23.40
2018-10-17T21:43:54.145Z,23.80
2018-10-17T21:46:22.282Z,25.17
2018-10-17T21:48:50.512Z,23.70
2018-10-17T21:51:18.623Z,25.00
2018-10-17T21:53:46.732Z,24.30
2018-10-17T21:56:14.940Z,24.93
2018-10-17T21:58:42.981Z,24.30
2018-10-17T22:01:11.106Z,22.93
2018-10-17T22:03:39.219Z,26.40
2018-10-17T22:06:07.355Z,28.10
2018-10-17T22:08:35.499Z,28.97
2018-10-17T22:11:03.744Z,26.77
2018-10-17T22:13:31.857Z,27.57
2018-10-17T22:15:59.991Z,28.00
2018-10-17T22:18:28.106Z,26.60
2018-10-17T22:20:56.260Z,28.73
2018-10-17T22:23:24.391Z,29.97
2018-10-17T22:25:52.520Z,31.03
2018-10-17T22:28:20.628Z,33.53
2018-10-17T22:30:48.746Z,35.27
2018-10-17T22:33:16.869Z,35.53
2018-10-17T22:35:44.985Z,37.57
2018-10-17T22:38:13.221Z,35.10
2018-10-17T22:40:41.239Z,38.20
2018-10-17T22:43:09.359Z,36.00
2018-10-17T22:45:37.473Z,36.73
2018-10-17T22:48:05.657Z,36.53
2018-10-17T22:50:33.867Z,35.67
2018-10-17T22:53:01.992Z,36.23
2018-10-17T22:55:30.118Z,34.63
2018-10-17T22:57:58.234Z,37.00
2018-10-17T23:00:26.389Z,37.27
2018-10-17T23:02:54.502Z,36.50
2018-10-17T23:05:22.644Z,36.27
2018-10-17T23:07:50.762Z,37.33
2018-10-17T23:10:18.874Z,35.23
2018-10-17T23:12:46.990Z,36.27
2018-10-17T23:15:15.894Z,36.67
2018-10-17T23:17:44.018Z,36.03
2018-10-17T23:20:12.288Z,36.70
2018-10-17T23:22:41.244Z,35.20
2018-10-17T23:25:10.647Z,36.43
2018-10-17T23:27:39.031Z,37.60
2018-10-17T23:30:08.533Z,38.25
2018-10-17T23:32:36.652Z,38.67
2018-10-17T23:35:04.757Z,42.43
2018-10-17T23:37:32.888Z,37.80
2018-10-17T23:40:01.029Z,41.90
2018-10-17T23:42:29.146Z,41.07
2018-10-17T23:44:57.242Z,41.97
2018-10-17T23:47:25.382Z,40.60
2018-10-17T23:49:53.504Z,40.63
2018-10-17T23:52:21.628Z,40.83
2018-10-17T23:54:49.746Z,42.43
2018-10-17T23:57:17.885Z,42.63
2018-10-17T23:59:45.993Z,41.80
